Taiki Maru — JI3464 — position and weather

sailwx.info

Track history (hours):
 
Tides and Currents Weather Stations Pressure Air Temp Water Temp Dewpoint Dewpoint Depression Visibility Wind Speed Wind Dir Waves Ship Positions

Taiki Maru

Last reported at 2014-Dec-22 19:17 UTC. Time now 2014-Dec-23 02:16 UTC.
Position N 34°06' E 134°60'.

Length 93 m; draft 6.5 m.

Type: Cargo ship. MMSI: 431300622.

Date/timePositionNaut miles runAvg speedWind from/ knotsBaromVisibWave heightAir tempDewpointWater temp
2014-Dec-22 19:17N 34°06' E 134°60'912.3
2014-Dec-22 18:33N 34°14' E 135°04'3 3.1
2014-Dec-22 17:33N 34°14' E 135°08'0 0.0
2014-Dec-22 16:33N 34°14' E 135°08'0 0.0
2014-Dec-22 15:33N 34°14' E 135°08'0 0.0
2014-Dec-22 14:33N 34°14' E 135°08'0 0.3
2014-Dec-22 13:33N 34°14' E 135°08'9 8.2
2014-Dec-22 12:28N 34°20' E 134°60'1213.5
2014-Dec-22 11:33N 34°29' E 135°10'1313.4
2014-Dec-22 10:33N 34°38' E 135°22'4 4.4
2014-Dec-22 09:33N 34°40' E 135°27'0 0.0
2014-Dec-22 08:26N 34°40' E 135°27'0 0.0
2014-Dec-22 07:26N 34°40' E 135°27'0 0.0
2014-Dec-22 06:32N 34°40' E 135°27'0 0.0
2014-Dec-22 05:32N 34°40' E 135°27'0 0.0
2014-Dec-22 04:32N 34°40' E 135°27'0 0.0
2014-Dec-22 03:20N 34°40' E 135°27'0 0.0
2014-Dec-22 02:32N 34°40' E 135°27'0 0.0
2014-Dec-22 01:32N 34°40' E 135°27'0 0.0
2014-Dec-22 00:26N 34°40' E 135°27'0 0.0
2014-Dec-21 23:33N 34°40' E 135°27'2 1.7
2014-Dec-21 22:33N 34°39' E 135°25'7 6.7
2014-Dec-21 21:33N 34°36' E 135°18'0 0.1
2014-Dec-21 20:33N 34°36' E 135°18'0 0.1
2014-Dec-21 19:33N 34°36' E 135°18'0 0.0
2014-Dec-21 18:33N 34°36' E 135°18'0 0.0
2014-Dec-21 17:33N 34°36' E 135°18'0 0.0
2014-Dec-21 16:33N 34°36' E 135°18'0 0.0
2014-Dec-21 15:33N 34°36' E 135°18'0 0.0
2014-Dec-21 14:33N 34°36' E 135°18'0 0.0
2014-Dec-21 13:34N 34°36' E 135°18'0 0.0
2014-Dec-21 12:33N 34°36' E 135°18'0 0.0
2014-Dec-21 11:33N 34°36' E 135°18'0 0.0
2014-Dec-21 10:33N 34°36' E 135°18'0 0.1
2014-Dec-21 09:33N 34°36' E 135°18'0 0.0
2014-Dec-21 08:33N 34°36' E 135°18'0 0.2
2014-Dec-21 07:33N 34°36' E 135°18'1211.5
2014-Dec-21 06:33N 34°27' E 135°09'1211.3
2014-Dec-21 05:30N 34°18' E 134°60'8 8.1
2014-Dec-21 04:34N 34°14' E 135°08'0 0.1
2014-Dec-21 03:33N 34°14' E 135°08'0 0.0
2014-Dec-21 02:33N 34°14' E 135°08'0 0.0
2014-Dec-21 01:33N 34°14' E 135°08'2 2.3
2014-Dec-21 00:33N 34°15' E 135°05'3 3.0
2014-Dec-20 23:33N 34°13' E 135°02'10 7.3
2014-Dec-20 22:15N 34°23' E 135°00'811.2
2014-Dec-20 21:31N 34°31' E 135°03'7 7.5
2014-Dec-20 20:33N 34°37' E 134°59'1110.7
2014-Dec-20 19:33N 34°39' E 134°46'5 0.2
2014-Dec-19 19:17N 34°41' E 134°41'1014.2
2014-Dec-19 18:33N 34°38' E 134°53'1111.2
2014-Dec-19 17:33N 34°33' E 135°05'1413.4
2014-Dec-19 16:31N 34°20' E 135°00'1212.8
2014-Dec-19 15:33N 34°07' E 134°59'  
Track history (hours):
 
Tides and Currents Weather Stations Pressure Air Temp Water Temp Dewpoint Dewpoint Depression Visibility Wind Speed Wind Dir Waves Ship Positions

Taiki Maru

Last reported at 2014-Dec-22 19:17 UTC. Time now 2014-Dec-23 02:16 UTC.
Position N 34°06' E 134°60'.

Length 93 m; draft 6.5 m.

Type: Cargo ship. MMSI: 431300622.

Date/timePositionNaut miles runAvg speedWind from/ knotsBaromVisibWave heightAir tempDewpointWater temp
2014-Dec-22 19:17N 34°06' E 134°60'912.3
2014-Dec-22 18:33N 34°14' E 135°04'3 3.1
2014-Dec-22 17:33N 34°14' E 135°08'0 0.0
2014-Dec-22 16:33N 34°14' E 135°08'0 0.0
2014-Dec-22 15:33N 34°14' E 135°08'0 0.0
2014-Dec-22 14:33N 34°14' E 135°08'0 0.3
2014-Dec-22 13:33N 34°14' E 135°08'9 8.2
2014-Dec-22 12:28N 34°20' E 134°60'1213.5
2014-Dec-22 11:33N 34°29' E 135°10'1313.4
2014-Dec-22 10:33N 34°38' E 135°22'4 4.4
2014-Dec-22 09:33N 34°40' E 135°27'0 0.0
2014-Dec-22 08:26N 34°40' E 135°27'0 0.0
2014-Dec-22 07:26N 34°40' E 135°27'0 0.0
2014-Dec-22 06:32N 34°40' E 135°27'0 0.0
2014-Dec-22 05:32N 34°40' E 135°27'0 0.0
2014-Dec-22 04:32N 34°40' E 135°27'0 0.0
2014-Dec-22 03:20N 34°40' E 135°27'0 0.0
2014-Dec-22 02:32N 34°40' E 135°27'0 0.0
2014-Dec-22 01:32N 34°40' E 135°27'0 0.0
2014-Dec-22 00:26N 34°40' E 135°27'0 0.0
2014-Dec-21 23:33N 34°40' E 135°27'2 1.7
2014-Dec-21 22:33N 34°39' E 135°25'7 6.7
2014-Dec-21 21:33N 34°36' E 135°18'0 0.1
2014-Dec-21 20:33N 34°36' E 135°18'0 0.1
2014-Dec-21 19:33N 34°36' E 135°18'0 0.0
2014-Dec-21 18:33N 34°36' E 135°18'0 0.0
2014-Dec-21 17:33N 34°36' E 135°18'0 0.0
2014-Dec-21 16:33N 34°36' E 135°18'0 0.0
2014-Dec-21 15:33N 34°36' E 135°18'0 0.0
2014-Dec-21 14:33N 34°36' E 135°18'0 0.0
2014-Dec-21 13:34N 34°36' E 135°18'0 0.0
2014-Dec-21 12:33N 34°36' E 135°18'0 0.0
2014-Dec-21 11:33N 34°36' E 135°18'0 0.0
2014-Dec-21 10:33N 34°36' E 135°18'0 0.1
2014-Dec-21 09:33N 34°36' E 135°18'0 0.0
2014-Dec-21 08:33N 34°36' E 135°18'0 0.2
2014-Dec-21 07:33N 34°36' E 135°18'1211.5
2014-Dec-21 06:33N 34°27' E 135°09'1211.3
2014-Dec-21 05:30N 34°18' E 134°60'8 8.1
2014-Dec-21 04:34N 34°14' E 135°08'0 0.1
2014-Dec-21 03:33N 34°14' E 135°08'0 0.0
2014-Dec-21 02:33N 34°14' E 135°08'0 0.0
2014-Dec-21 01:33N 34°14' E 135°08'2 2.3
2014-Dec-21 00:33N 34°15' E 135°05'3 3.0
2014-Dec-20 23:33N 34°13' E 135°02'10 7.3
2014-Dec-20 22:15N 34°23' E 135°00'811.2
2014-Dec-20 21:31N 34°31' E 135°03'7 7.5
2014-Dec-20 20:33N 34°37' E 134°59'1110.7
2014-Dec-20 19:33N 34°39' E 134°46'5 0.2
2014-Dec-19 19:17N 34°41' E 134°41'1014.2
2014-Dec-19 18:33N 34°38' E 134°53'1111.2
2014-Dec-19 17:33N 34°33' E 135°05'1413.4
2014-Dec-19 16:31N 34°20' E 135°00'1212.8
2014-Dec-19 15:33N 34°07' E 134°59'  

Dump ship's entire track history